sensor_id;sensor_type;location;lat;lon;timestamp;temperature;humidity
40434;DHT22;26146;51.114;5.654;2022-07-23T00:00:06;18.50;99.90
40434;DHT22;26146;51.114;5.654;2022-07-23T00:04:08;18.40;99.90
40434;DHT22;26146;51.114;5.654;2022-07-23T00:08:09;18.20;99.90
40434;DHT22;26146;51.114;5.654;2022-07-23T00:12:10;18.20;99.90
40434;DHT22;26146;51.114;5.654;2022-07-23T00:16:11;18.20;99.90
40434;DHT22;26146;51.114;5.654;2022-07-23T00:20:12;18.10;99.90
40434;DHT22;26146;51.114;5.654;2022-07-23T00:24:16;18.00;99.90
40434;DHT22;26146;51.114;5.654;2022-07-23T00:28:18;18.00;99.90
40434;DHT22;26146;51.114;5.654;2022-07-23T00:32:19;18.10;99.90
40434;DHT22;26146;51.114;5.654;2022-07-23T00:36:20;18.00;99.90
40434;DHT22;26146;51.114;5.654;2022-07-23T00:40:24;17.90;99.90
40434;DHT22;26146;51.114;5.654;2022-07-23T00:44:27;17.80;99.90
40434;DHT22;26146;51.114;5.654;2022-07-23T00:48:30;17.80;99.90
40434;DHT22;26146;51.114;5.654;2022-07-23T00:52:34;17.80;99.90
40434;DHT22;26146;51.114;5.654;2022-07-23T00:56:36;17.80;99.90
40434;DHT22;26146;51.114;5.654;2022-07-23T01:00:38;17.80;99.90
40434;DHT22;26146;51.114;5.654;2022-07-23T01:04:39;17.70;99.90
40434;DHT22;26146;51.114;5.654;2022-07-23T01:08:40;17.80;99.90
40434;DHT22;26146;51.114;5.654;2022-07-23T01:12:42;17.70;99.90
40434;DHT22;26146;51.114;5.654;2022-07-23T01:16:44;17.70;99.90
40434;DHT22;26146;51.114;5.654;2022-07-23T01:20:46;17.70;99.90
40434;DHT22;26146;51.114;5.654;2022-07-23T01:24:47;17.60;99.90
40434;DHT22;26146;51.114;5.654;2022-07-23T01:28:48;17.50;99.90
40434;DHT22;26146;51.114;5.654;2022-07-23T01:32:53;17.50;99.90
40434;DHT22;26146;51.114;5.654;2022-07-23T01:36:57;17.50;99.90
40434;DHT22;26146;51.114;5.654;2022-07-23T01:40:58;17.50;99.90
40434;DHT22;26146;51.114;5.654;2022-07-23T01:44:59;17.50;99.90
40434;DHT22;26146;51.114;5.654;2022-07-23T01:49:00;17.40;99.90
40434;DHT22;26146;51.114;5.654;2022-07-23T01:53:01;17.30;99.90
40434;DHT22;26146;51.114;5.654;2022-07-23T01:57:02;17.30;99.90
40434;DHT22;26146;51.114;5.654;2022-07-23T02:01:03;17.30;99.90
40434;DHT22;26146;51.114;5.654;2022-07-23T02:05:04;17.30;99.90
40434;DHT22;26146;51.114;5.654;2022-07-23T02:09:06;17.10;99.90
40434;DHT22;26146;51.114;5.654;2022-07-23T02:13:07;17.00;99.90
40434;DHT22;26146;51.114;5.654;2022-07-23T02:17:07;17.00;99.90
40434;DHT22;26146;51.114;5.654;2022-07-23T02:21:08;16.90;99.90
40434;DHT22;26146;51.114;5.654;2022-07-23T02:25:12;16.90;99.90
40434;DHT22;26146;51.114;5.654;2022-07-23T02:29:16;16.90;99.90
40434;DHT22;26146;51.114;5.654;2022-07-23T02:33:16;16.80;99.90
40434;DHT22;26146;51.114;5.654;2022-07-23T02:37:17;16.80;99.90
40434;DHT22;26146;51.114;5.654;2022-07-23T02:41:18;16.80;99.90
40434;DHT22;26146;51.114;5.654;2022-07-23T02:45:19;16.80;99.90
40434;DHT22;26146;51.114;5.654;2022-07-23T02:49:22;16.80;99.90
40434;DHT22;26146;51.114;5.654;2022-07-23T02:53:23;16.80;99.90
40434;DHT22;26146;51.114;5.654;2022-07-23T02:57:24;16.70;99.90
40434;DHT22;26146;51.114;5.654;2022-07-23T03:01:25;16.60;99.90
40434;DHT22;26146;51.114;5.654;2022-07-23T03:05:26;16.50;99.90
40434;DHT22;26146;51.114;5.654;2022-07-23T03:09:29;16.60;99.90
40434;DHT22;26146;51.114;5.654;2022-07-23T03:13:30;16.50;99.90
40434;DHT22;26146;51.114;5.654;2022-07-23T03:17:32;16.50;99.90
40434;DHT22;26146;51.114;5.654;2022-07-23T03:21:33;16.40;99.90
40434;DHT22;26146;51.114;5.654;2022-07-23T03:25:34;16.40;99.90
40434;DHT22;26146;51.114;5.654;2022-07-23T03:29:35;16.30;99.90
40434;DHT22;26146;51.114;5.654;2022-07-23T03:33:37;16.20;99.90
40434;DHT22;26146;51.114;5.654;2022-07-23T03:37:38;16.20;99.90
40434;DHT22;26146;51.114;5.654;2022-07-23T03:41:39;16.10;99.90
40434;DHT22;26146;51.114;5.654;2022-07-23T03:45:40;16.20;99.90
40434;DHT22;26146;51.114;5.654;2022-07-23T03:49:41;16.20;99.90
40434;DHT22;26146;51.114;5.654;2022-07-23T03:53:46;16.00;99.90
40434;DHT22;26146;51.114;5.654;2022-07-23T03:57:49;16.00;99.90
40434;DHT22;26146;51.114;5.654;2022-07-23T04:01:50;16.10;99.90
40434;DHT22;26146;51.114;5.654;2022-07-23T04:05:51;16.10;99.90
40434;DHT22;26146;51.114;5.654;2022-07-23T04:09:55;16.20;99.90
40434;DHT22;26146;51.114;5.654;2022-07-23T04:13:56;16.10;99.90
40434;DHT22;26146;51.114;5.654;2022-07-23T04:17:59;16.20;99.90
40434;DHT22;26146;51.114;5.654;2022-07-23T04:22:00;16.20;99.90
40434;DHT22;26146;51.114;5.654;2022-07-23T04:26:02;16.20;99.90
40434;DHT22;26146;51.114;5.654;2022-07-23T04:30:03;16.20;99.90
40434;DHT22;26146;51.114;5.654;2022-07-23T04:34:04;16.20;99.90
40434;DHT22;26146;51.114;5.654;2022-07-23T04:38:05;16.30;99.90
40434;DHT22;26146;51.114;5.654;2022-07-23T04:42:07;16.50;99.90
40434;DHT22;26146;51.114;5.654;2022-07-23T04:46:08;16.60;99.90
40434;DHT22;26146;51.114;5.654;2022-07-23T04:50:09;16.80;99.90
40434;DHT22;26146;51.114;5.654;2022-07-23T04:54:10;16.80;99.90
40434;DHT22;26146;51.114;5.654;2022-07-23T04:58:13;17.00;99.90
40434;DHT22;26146;51.114;5.654;2022-07-23T05:02:14;17.10;99.90
40434;DHT22;26146;51.114;5.654;2022-07-23T05:06:15;17.20;99.90
40434;DHT22;26146;51.114;5.654;2022-07-23T05:10:19;17.40;99.90
40434;DHT22;26146;51.114;5.654;2022-07-23T05:14:20;17.50;99.90
40434;DHT22;26146;51.114;5.654;2022-07-23T05:18:21;17.60;99.90
40434;DHT22;26146;51.114;5.654;2022-07-23T05:22:22;17.70;99.90
40434;DHT22;26146;51.114;5.654;2022-07-23T05:26:26;17.70;99.90
40434;DHT22;26146;51.114;5.654;2022-07-23T05:30:31;17.90;99.90
40434;DHT22;26146;51.114;5.654;2022-07-23T05:34:32;17.90;99.90
40434;DHT22;26146;51.114;5.654;2022-07-23T05:38:33;18.10;99.90
40434;DHT22;26146;51.114;5.654;2022-07-23T05:42:37;18.30;99.90
40434;DHT22;26146;51.114;5.654;2022-07-23T05:46:39;18.60;99.90
40434;DHT22;26146;51.114;5.654;2022-07-23T05:50:40;18.70;99.90
40434;DHT22;26146;51.114;5.654;2022-07-23T05:54:41;18.90;99.90
40434;DHT22;26146;51.114;5.654;2022-07-23T05:58:44;19.10;99.90
40434;DHT22;26146;51.114;5.654;2022-07-23T06:02:45;19.20;99.90
40434;DHT22;26146;51.114;5.654;2022-07-23T06:06:54;19.30;99.90
40434;DHT22;26146;51.114;5.654;2022-07-23T06:10:59;19.20;99.90
40434;DHT22;26146;51.114;5.654;2022-07-23T06:15:01;19.30;99.90
40434;DHT22;26146;51.114;5.654;2022-07-23T06:19:02;19.40;99.90
40434;DHT22;26146;51.114;5.654;2022-07-23T06:23:03;19.50;99.90
40434;DHT22;26146;51.114;5.654;2022-07-23T06:27:04;19.50;99.90
40434;DHT22;26146;51.114;5.654;2022-07-23T06:31:05;19.60;99.90
40434;DHT22;26146;51.114;5.654;2022-07-23T06:35:08;19.90;99.90
40434;DHT22;26146;51.114;5.654;2022-07-23T06:39:11;19.90;99.90
40434;DHT22;26146;51.114;5.654;2022-07-23T06:43:12;19.90;99.90
40434;DHT22;26146;51.114;5.654;2022-07-23T06:47:15;19.80;99.90
40434;DHT22;26146;51.114;5.654;2022-07-23T06:51:21;20.00;99.90
40434;DHT22;26146;51.114;5.654;2022-07-23T06:55:22;20.30;99.90
40434;DHT22;26146;51.114;5.654;2022-07-23T06:59:23;20.40;99.90
40434;DHT22;26146;51.114;5.654;2022-07-23T07:03:25;20.70;99.90
40434;DHT22;26146;51.114;5.654;2022-07-23T07:07:29;20.60;99.90
40434;DHT22;26146;51.114;5.654;2022-07-23T07:11:30;20.40;99.90
40434;DHT22;26146;51.114;5.654;2022-07-23T07:15:31;20.40;99.90
40434;DHT22;26146;51.114;5.654;2022-07-23T07:19:32;20.50;99.90
40434;DHT22;26146;51.114;5.654;2022-07-23T07:23:33;20.80;99.90
40434;DHT22;26146;51.114;5.654;2022-07-23T07:27:34;21.10;99.90
40434;DHT22;26146;51.114;5.654;2022-07-23T07:31:35;21.20;99.90
40434;DHT22;26146;51.114;5.654;2022-07-23T07:35:43;21.10;99.90
40434;DHT22;26146;51.114;5.654;2022-07-23T07:39:44;21.40;99.70
40434;DHT22;26146;51.114;5.654;2022-07-23T07:43:45;21.40;99.40
40434;DHT22;26146;51.114;5.654;2022-07-23T07:47:47;21.60;99.00
40434;DHT22;26146;51.114;5.654;2022-07-23T07:51:51;21.60;98.30
40434;DHT22;26146;51.114;5.654;2022-07-23T07:55:51;21.60;98.50
40434;DHT22;26146;51.114;5.654;2022-07-23T07:59:52;21.50;98.30
40434;DHT22;26146;51.114;5.654;2022-07-23T08:03:53;21.50;98.70
40434;DHT22;26146;51.114;5.654;2022-07-23T08:07:56;21.60;99.70
40434;DHT22;26146;51.114;5.654;2022-07-23T08:12:00;22.10;97.50
40434;DHT22;26146;51.114;5.654;2022-07-23T08:16:01;22.00;97.10
40434;DHT22;26146;51.114;5.654;2022-07-23T08:20:08;22.20;96.90
40434;DHT22;26146;51.114;5.654;2022-07-23T08:24:10;22.30;97.10
40434;DHT22;26146;51.114;5.654;2022-07-23T08:28:14;22.30;97.00
40434;DHT22;26146;51.114;5.654;2022-07-23T08:32:15;22.30;97.20
40434;DHT22;26146;51.114;5.654;2022-07-23T08:36:16;22.40;96.90
40434;DHT22;26146;51.114;5.654;2022-07-23T08:40:18;22.60;96.20
40434;DHT22;26146;51.114;5.654;2022-07-23T08:44:19;22.60;96.30
40434;DHT22;26146;51.114;5.654;2022-07-23T08:48:22;22.80;95.70
40434;DHT22;26146;51.114;5.654;2022-07-23T08:52:24;22.90;95.50
40434;DHT22;26146;51.114;5.654;2022-07-23T08:56:26;23.10;95.00
40434;DHT22;26146;51.114;5.654;2022-07-23T09:00:28;23.20;94.30
40434;DHT22;26146;51.114;5.654;2022-07-23T09:04:30;23.20;93.70
40434;DHT22;26146;51.114;5.654;2022-07-23T09:08:43;23.20;93.70
40434;DHT22;26146;51.114;5.654;2022-07-23T09:12:46;23.30;93.30
40434;DHT22;26146;51.114;5.654;2022-07-23T09:16:47;23.30;94.00
40434;DHT22;26146;51.114;5.654;2022-07-23T09:20:48;23.30;92.90
40434;DHT22;26146;51.114;5.654;2022-07-23T09:25:09;23.30;93.30
40434;DHT22;26146;51.114;5.654;2022-07-23T09:29:20;23.40;92.60
40434;DHT22;26146;51.114;5.654;2022-07-23T09:33:26;23.50;92.30
40434;DHT22;26146;51.114;5.654;2022-07-23T09:37:28;23.50;91.30
40434;DHT22;26146;51.114;5.654;2022-07-23T09:41:42;23.60;91.80
40434;DHT22;26146;51.114;5.654;2022-07-23T09:45:43;23.80;92.60
40434;DHT22;26146;51.114;5.654;2022-07-23T09:54:06;24.10;90.90
40434;DHT22;26146;51.114;5.654;2022-07-23T09:58:21;24.20;91.30
40434;DHT22;26146;51.114;5.654;2022-07-23T10:02:25;24.40;91.20
40434;DHT22;26146;51.114;5.654;2022-07-23T10:06:30;24.40;89.90
40434;DHT22;26146;51.114;5.654;2022-07-23T10:10:31;24.50;87.40
40434;DHT22;26146;51.114;5.654;2022-07-23T10:14:33;24.30;86.50
40434;DHT22;26146;51.114;5.654;2022-07-23T10:18:38;24.20;85.30
40434;DHT22;26146;51.114;5.654;2022-07-23T10:22:54;24.40;86.50
40434;DHT22;26146;51.114;5.654;2022-07-23T10:31:31;24.50;89.10
40434;DHT22;26146;51.114;5.654;2022-07-23T10:39:42;24.70;85.00
40434;DHT22;26146;51.114;5.654;2022-07-23T10:43:43;24.70;87.30
40434;DHT22;26146;51.114;5.654;2022-07-23T10:52:33;24.30;87.40
40434;DHT22;26146;51.114;5.654;2022-07-23T11:00:56;24.70;87.50
40434;DHT22;26146;51.114;5.654;2022-07-23T11:05:09;25.10;86.10
40434;DHT22;26146;51.114;5.654;2022-07-23T11:09:42;25.20;83.70
40434;DHT22;26146;51.114;5.654;2022-07-23T11:13:47;25.20;81.40
40434;DHT22;26146;51.114;5.654;2022-07-23T11:21:53;25.30;83.50
40434;DHT22;26146;51.114;5.654;2022-07-23T11:26:02;25.60;84.00
40434;DHT22;26146;51.114;5.654;2022-07-23T11:30:10;25.50;82.10
40434;DHT22;26146;51.114;5.654;2022-07-23T11:34:44;25.50;83.50
40434;DHT22;26146;51.114;5.654;2022-07-23T11:38:50;25.60;82.10
40434;DHT22;26146;51.114;5.654;2022-07-23T11:42:59;25.60;79.80
40434;DHT22;26146;51.114;5.654;2022-07-23T11:47:07;25.50;78.80
40434;DHT22;26146;51.114;5.654;2022-07-23T11:51:08;25.50;83.00
40434;DHT22;26146;51.114;5.654;2022-07-23T11:55:10;25.50;82.10
40434;DHT22;26146;51.114;5.654;2022-07-23T11:59:12;25.50;81.00
40434;DHT22;26146;51.114;5.654;2022-07-23T12:03:14;25.90;78.70
40434;DHT22;26146;51.114;5.654;2022-07-23T12:11:25;26.20;79.70
40434;DHT22;26146;51.114;5.654;2022-07-23T12:15:35;26.40;79.20
40434;DHT22;26146;51.114;5.654;2022-07-23T12:19:42;26.40;79.50
40434;DHT22;26146;51.114;5.654;2022-07-23T12:23:43;26.40;79.40
40434;DHT22;26146;51.114;5.654;2022-07-23T12:28:11;26.70;77.60
40434;DHT22;26146;51.114;5.654;2022-07-23T12:32:27;27.00;77.10
40434;DHT22;26146;51.114;5.654;2022-07-23T12:36:37;27.10;77.40
40434;DHT22;26146;51.114;5.654;2022-07-23T12:40:51;27.30;75.60
40434;DHT22;26146;51.114;5.654;2022-07-23T12:45:08;26.90;76.10
40434;DHT22;26146;51.114;5.654;2022-07-23T12:49:27;26.70;76.90
40434;DHT22;26146;51.114;5.654;2022-07-23T12:57:48;26.90;76.60
40434;DHT22;26146;51.114;5.654;2022-07-23T13:01:56;27.10;76.60
40434;DHT22;26146;51.114;5.654;2022-07-23T13:06:04;27.20;75.30
40434;DHT22;26146;51.114;5.654;2022-07-23T13:10:10;27.20;74.30
40434;DHT22;26146;51.114;5.654;2022-07-23T13:14:13;27.30;73.80
40434;DHT22;26146;51.114;5.654;2022-07-23T13:18:20;27.20;75.00
40434;DHT22;26146;51.114;5.654;2022-07-23T13:22:24;27.20;74.80
40434;DHT22;26146;51.114;5.654;2022-07-23T13:26:29;27.10;75.70
40434;DHT22;26146;51.114;5.654;2022-07-23T13:30:32;27.10;75.00
40434;DHT22;26146;51.114;5.654;2022-07-23T13:34:34;26.80;75.30
40434;DHT22;26146;51.114;5.654;2022-07-23T13:38:38;27.10;75.10
40434;DHT22;26146;51.114;5.654;2022-07-23T13:42:43;27.20;74.70
40434;DHT22;26146;51.114;5.654;2022-07-23T13:46:44;27.20;76.10
40434;DHT22;26146;51.114;5.654;2022-07-23T13:50:48;27.30;75.20
40434;DHT22;26146;51.114;5.654;2022-07-23T13:54:50;27.00;75.30
40434;DHT22;26146;51.114;5.654;2022-07-23T13:58:51;27.00;76.00
40434;DHT22;26146;51.114;5.654;2022-07-23T14:02:52;27.40;75.70
40434;DHT22;26146;51.114;5.654;2022-07-23T14:06:53;27.40;75.10
40434;DHT22;26146;51.114;5.654;2022-07-23T14:10:54;27.70;75.70
40434;DHT22;26146;51.114;5.654;2022-07-23T14:14:55;28.20;74.90
40434;DHT22;26146;51.114;5.654;2022-07-23T14:18:58;28.00;73.20
40434;DHT22;26146;51.114;5.654;2022-07-23T14:23:02;28.20;73.50
40434;DHT22;26146;51.114;5.654;2022-07-23T14:27:06;28.40;73.90
40434;DHT22;26146;51.114;5.654;2022-07-23T14:31:07;28.00;73.00
40434;DHT22;26146;51.114;5.654;2022-07-23T14:35:08;27.90;73.60
40434;DHT22;26146;51.114;5.654;2022-07-23T14:39:09;28.30;73.60
40434;DHT22;26146;51.114;5.654;2022-07-23T14:43:10;28.60;72.30
40434;DHT22;26146;51.114;5.654;2022-07-23T14:47:11;28.40;73.20
40434;DHT22;26146;51.114;5.654;2022-07-23T14:51:12;28.10;74.90
40434;DHT22;26146;51.114;5.654;2022-07-23T14:55:19;28.20;74.20
40434;DHT22;26146;51.114;5.654;2022-07-23T14:59:32;28.40;74.90
40434;DHT22;26146;51.114;5.654;2022-07-23T15:03:33;28.90;72.70
40434;DHT22;26146;51.114;5.654;2022-07-23T15:07:38;29.10;72.10
40434;DHT22;26146;51.114;5.654;2022-07-23T15:11:42;29.10;70.70
40434;DHT22;26146;51.114;5.654;2022-07-23T15:15:45;28.90;71.50
40434;DHT22;26146;51.114;5.654;2022-07-23T15:19:49;29.00;73.20
40434;DHT22;26146;51.114;5.654;2022-07-23T15:23:50;29.00;72.90
40434;DHT22;26146;51.114;5.654;2022-07-23T15:27:51;28.90;71.60
40434;DHT22;26146;51.114;5.654;2022-07-23T15:31:52;28.90;71.10
40434;DHT22;26146;51.114;5.654;2022-07-23T15:35:53;29.00;71.50
40434;DHT22;26146;51.114;5.654;2022-07-23T15:40:04;28.90;71.10
40434;DHT22;26146;51.114;5.654;2022-07-23T15:44:08;28.90;71.40
40434;DHT22;26146;51.114;5.654;2022-07-23T15:48:08;28.90;71.00
40434;DHT22;26146;51.114;5.654;2022-07-23T15:52:12;29.20;71.00
40434;DHT22;26146;51.114;5.654;2022-07-23T15:56:16;28.80;71.50
40434;DHT22;26146;51.114;5.654;2022-07-23T16:00:17;28.70;72.10
40434;DHT22;26146;51.114;5.654;2022-07-23T16:04:19;28.90;71.30
40434;DHT22;26146;51.114;5.654;2022-07-23T16:08:20;29.10;71.00
40434;DHT22;26146;51.114;5.654;2022-07-23T16:12:24;29.50;71.50
40434;DHT22;26146;51.114;5.654;2022-07-23T16:16:25;29.60;71.80
40434;DHT22;26146;51.114;5.654;2022-07-23T16:20:31;29.80;72.10
40434;DHT22;26146;51.114;5.654;2022-07-23T16:24:37;30.10;72.10
40434;DHT22;26146;51.114;5.654;2022-07-23T16:28:39;29.90;72.90
40434;DHT22;26146;51.114;5.654;2022-07-23T16:32:41;29.90;72.10
40434;DHT22;26146;51.114;5.654;2022-07-23T16:36:42;29.90;73.00
40434;DHT22;26146;51.114;5.654;2022-07-23T16:40:43;29.60;72.50
40434;DHT22;26146;51.114;5.654;2022-07-23T16:44:44;29.40;72.90
40434;DHT22;26146;51.114;5.654;2022-07-23T16:48:45;28.90;73.40
40434;DHT22;26146;51.114;5.654;2022-07-23T16:52:49;28.70;74.70
40434;DHT22;26146;51.114;5.654;2022-07-23T16:56:52;28.80;73.70
40434;DHT22;26146;51.114;5.654;2022-07-23T17:00:53;28.80;73.20
40434;DHT22;26146;51.114;5.654;2022-07-23T17:04:55;28.60;73.60
40434;DHT22;26146;51.114;5.654;2022-07-23T17:08:57;28.10;73.50
40434;DHT22;26146;51.114;5.654;2022-07-23T17:12:58;28.00;73.60
40434;DHT22;26146;51.114;5.654;2022-07-23T17:16:59;27.80;73.50
40434;DHT22;26146;51.114;5.654;2022-07-23T17:21:07;27.70;74.30
40434;DHT22;26146;51.114;5.654;2022-07-23T17:25:10;27.30;74.60
40434;DHT22;26146;51.114;5.654;2022-07-23T17:29:14;27.30;75.60
40434;DHT22;26146;51.114;5.654;2022-07-23T17:33:15;27.20;75.60
40434;DHT22;26146;51.114;5.654;2022-07-23T17:37:16;27.30;76.80
40434;DHT22;26146;51.114;5.654;2022-07-23T17:41:17;27.20;75.80
40434;DHT22;26146;51.114;5.654;2022-07-23T17:45:18;27.20;76.00
40434;DHT22;26146;51.114;5.654;2022-07-23T17:49:24;27.10;76.50
40434;DHT22;26146;51.114;5.654;2022-07-23T17:53:25;27.00;75.60
40434;DHT22;26146;51.114;5.654;2022-07-23T17:57:28;27.00;76.90
40434;DHT22;26146;51.114;5.654;2022-07-23T18:01:29;26.80;78.30
40434;DHT22;26146;51.114;5.654;2022-07-23T18:05:33;26.80;78.20
40434;DHT22;26146;51.114;5.654;2022-07-23T18:09:34;26.80;78.80
40434;DHT22;26146;51.114;5.654;2022-07-23T18:13:36;26.80;78.50
40434;DHT22;26146;51.114;5.654;2022-07-23T18:17:41;26.90;78.90
40434;DHT22;26146;51.114;5.654;2022-07-23T18:21:43;26.80;78.50
40434;DHT22;26146;51.114;5.654;2022-07-23T18:25:48;26.50;78.90
40434;DHT22;26146;51.114;5.654;2022-07-23T18:29:49;26.30;79.60
40434;DHT22;26146;51.114;5.654;2022-07-23T18:33:50;26.40;79.70
40434;DHT22;26146;51.114;5.654;2022-07-23T18:37:51;26.40;80.10
40434;DHT22;26146;51.114;5.654;2022-07-23T18:41:52;26.40;80.00
40434;DHT22;26146;51.114;5.654;2022-07-23T18:45:55;26.60;79.20
40434;DHT22;26146;51.114;5.654;2022-07-23T18:49:58;26.30;80.20
40434;DHT22;26146;51.114;5.654;2022-07-23T18:53:59;26.30;80.30
40434;DHT22;26146;51.114;5.654;2022-07-23T18:58:00;26.30;80.20
40434;DHT22;26146;51.114;5.654;2022-07-23T19:02:04;26.20;80.60
40434;DHT22;26146;51.114;5.654;2022-07-23T19:06:05;25.80;82.00
40434;DHT22;26146;51.114;5.654;2022-07-23T19:10:07;25.60;82.00
40434;DHT22;26146;51.114;5.654;2022-07-23T19:14:11;25.40;82.10
40434;DHT22;26146;51.114;5.654;2022-07-23T19:18:12;25.50;83.90
40434;DHT22;26146;51.114;5.654;2022-07-23T19:22:13;25.40;85.60
40434;DHT22;26146;51.114;5.654;2022-07-23T19:26:14;25.20;87.50
40434;DHT22;26146;51.114;5.654;2022-07-23T19:30:16;25.00;88.70
40434;DHT22;26146;51.114;5.654;2022-07-23T19:34:17;24.90;88.70
40434;DHT22;26146;51.114;5.654;2022-07-23T19:38:18;24.80;89.00
40434;DHT22;26146;51.114;5.654;2022-07-23T19:42:20;24.60;89.80
40434;DHT22;26146;51.114;5.654;2022-07-23T19:46:20;24.40;90.50
40434;DHT22;26146;51.114;5.654;2022-07-23T19:50:22;24.40;91.00
40434;DHT22;26146;51.114;5.654;2022-07-23T19:54:24;24.20;91.30
40434;DHT22;26146;51.114;5.654;2022-07-23T19:58:25;24.00;91.50
40434;DHT22;26146;51.114;5.654;2022-07-23T20:02:28;23.90;91.50
40434;DHT22;26146;51.114;5.654;2022-07-23T20:06:33;23.70;91.70
40434;DHT22;26146;51.114;5.654;2022-07-23T20:10:34;23.60;91.90
40434;DHT22;26146;51.114;5.654;2022-07-23T20:14:38;23.50;92.40
40434;DHT22;26146;51.114;5.654;2022-07-23T20:18:39;23.40;92.40
40434;DHT22;26146;51.114;5.654;2022-07-23T20:22:40;23.30;92.20
40434;DHT22;26146;51.114;5.654;2022-07-23T20:26:41;23.10;92.40
40434;DHT22;26146;51.114;5.654;2022-07-23T20:30:43;23.00;92.70
40434;DHT22;26146;51.114;5.654;2022-07-23T20:34:47;22.90;93.30
40434;DHT22;26146;51.114;5.654;2022-07-23T20:38:48;22.80;93.30
40434;DHT22;26146;51.114;5.654;2022-07-23T20:42:49;22.70;93.40
40434;DHT22;26146;51.114;5.654;2022-07-23T20:46:50;22.60;93.80
40434;DHT22;26146;51.114;5.654;2022-07-23T20:50:51;22.50;94.00
40434;DHT22;26146;51.114;5.654;2022-07-23T20:54:52;22.40;94.30
40434;DHT22;26146;51.114;5.654;2022-07-23T20:58:53;22.30;94.60
40434;DHT22;26146;51.114;5.654;2022-07-23T21:02:54;22.30;94.50
40434;DHT22;26146;51.114;5.654;2022-07-23T21:06:58;22.20;94.50
40434;DHT22;26146;51.114;5.654;2022-07-23T21:10:59;22.10;94.70
40434;DHT22;26146;51.114;5.654;2022-07-23T21:15:06;21.90;94.80
40434;DHT22;26146;51.114;5.654;2022-07-23T21:19:08;21.90;95.10
40434;DHT22;26146;51.114;5.654;2022-07-23T21:23:10;21.80;95.40
40434;DHT22;26146;51.114;5.654;2022-07-23T21:27:12;21.70;95.50
40434;DHT22;26146;51.114;5.654;2022-07-23T21:31:15;21.60;95.50
40434;DHT22;26146;51.114;5.654;2022-07-23T21:35:19;21.60;95.80
40434;DHT22;26146;51.114;5.654;2022-07-23T21:39:26;21.60;96.30
40434;DHT22;26146;51.114;5.654;2022-07-23T21:43:27;21.50;96.60
40434;DHT22;26146;51.114;5.654;2022-07-23T21:47:28;21.50;96.80
40434;DHT22;26146;51.114;5.654;2022-07-23T21:51:29;21.40;96.90
40434;DHT22;26146;51.114;5.654;2022-07-23T21:55:31;21.30;96.90
40434;DHT22;26146;51.114;5.654;2022-07-23T21:59:32;21.30;97.20
40434;DHT22;26146;51.114;5.654;2022-07-23T22:03:33;21.30;97.30
40434;DHT22;26146;51.114;5.654;2022-07-23T22:07:35;21.20;97.40
40434;DHT22;26146;51.114;5.654;2022-07-23T22:11:41;21.20;97.50
40434;DHT22;26146;51.114;5.654;2022-07-23T22:15:45;21.20;97.30
40434;DHT22;26146;51.114;5.654;2022-07-23T22:19:47;21.10;97.50
40434;DHT22;26146;51.114;5.654;2022-07-23T22:23:51;21.00;97.80
40434;DHT22;26146;51.114;5.654;2022-07-23T22:27:52;20.90;98.10
40434;DHT22;26146;51.114;5.654;2022-07-23T22:31:52;20.90;98.40
40434;DHT22;26146;51.114;5.654;2022-07-23T22:35:54;20.80;98.60
40434;DHT22;26146;51.114;5.654;2022-07-23T22:39:57;20.70;98.80
40434;DHT22;26146;51.114;5.654;2022-07-23T22:43:59;20.70;98.80
40434;DHT22;26146;51.114;5.654;2022-07-23T22:48:02;20.90;98.40
40434;DHT22;26146;51.114;5.654;2022-07-23T22:52:03;20.80;98.30
40434;DHT22;26146;51.114;5.654;2022-07-23T22:56:05;20.80;98.50
40434;DHT22;26146;51.114;5.654;2022-07-23T23:00:07;20.70;98.60
40434;DHT22;26146;51.114;5.654;2022-07-23T23:04:09;20.80;98.50
40434;DHT22;26146;51.114;5.654;2022-07-23T23:08:12;20.80;98.30
40434;DHT22;26146;51.114;5.654;2022-07-23T23:12:13;20.90;98.30
40434;DHT22;26146;51.114;5.654;2022-07-23T23:16:14;20.90;98.30
40434;DHT22;26146;51.114;5.654;2022-07-23T23:20:15;20.60;98.80
40434;DHT22;26146;51.114;5.654;2022-07-23T23:24:16;20.60;99.10
40434;DHT22;26146;51.114;5.654;2022-07-23T23:28:17;20.60;99.00
40434;DHT22;26146;51.114;5.654;2022-07-23T23:32:20;20.60;98.90
40434;DHT22;26146;51.114;5.654;2022-07-23T23:36:23;20.70;98.70
40434;DHT22;26146;51.114;5.654;2022-07-23T23:40:24;20.50;99.20
40434;DHT22;26146;51.114;5.654;2022-07-23T23:44:25;20.40;99.30
40434;DHT22;26146;51.114;5.654;2022-07-23T23:48:26;20.40;99.30
40434;DHT22;26146;51.114;5.654;2022-07-23T23:52:29;20.40;99.40
40434;DHT22;26146;51.114;5.654;2022-07-23T23:56:31;20.30;99.40
